createdAt,value
2022-10-29T00:00:59.182Z,28.80
2022-10-29T00:03:26.523Z,28.88
2022-10-29T00:06:01.126Z,26.35
2022-10-29T00:08:28.516Z,26.63
2022-10-29T00:10:55.419Z,27.67
2022-10-29T00:13:22.259Z,29.10
2022-10-29T00:15:49.040Z,28.58
2022-10-29T00:18:15.857Z,28.97
2022-10-29T00:20:42.670Z,29.05
2022-10-29T00:23:09.482Z,30.92
2022-10-29T00:25:36.313Z,25.63
2022-10-29T00:28:03.104Z,26.05
2022-10-29T00:30:29.906Z,28.33
2022-10-29T00:32:56.906Z,26.98
2022-10-29T00:35:23.934Z,26.40
2022-10-29T00:37:50.774Z,28.40
2022-10-29T00:40:17.633Z,32.40
2022-10-29T00:42:44.449Z,27.50
2022-10-29T00:45:19.422Z,27.13
2022-10-29T00:47:46.252Z,24.85
2022-10-29T00:50:13.244Z,27.98
2022-10-29T00:52:42.951Z,30.05
2022-10-29T00:55:09.773Z,30.13
2022-10-29T00:57:39.677Z,31.00
2022-10-29T01:00:07.193Z,32.78
2022-10-29T01:02:34.205Z,33.40
2022-10-29T01:05:01.965Z,36.07
2022-10-29T01:07:28.737Z,34.57
2022-10-29T01:09:55.663Z,34.60
2022-10-29T01:12:44.663Z,27.10
2022-10-29T01:15:11.495Z,26.37
2022-10-29T01:17:54.196Z,23.83
2022-10-29T01:20:50.484Z,27.87
2022-10-29T01:23:48.356Z,30.37
2022-10-29T01:26:48.583Z,29.97
2022-10-29T01:30:06.517Z,29.07
2022-10-29T01:32:53.715Z,29.53
2022-10-29T01:35:37.735Z,30.60
2022-10-29T01:38:23.006Z,34.93
2022-10-29T01:40:55.288Z,33.87
2022-10-29T01:43:31.276Z,36.05
2022-10-29T01:46:04.913Z,35.43
2022-10-29T01:48:36.290Z,36.50
2022-10-29T01:51:08.361Z,34.73
2022-10-29T01:53:36.086Z,33.20
2022-10-29T01:56:02.855Z,35.20
2022-10-29T01:58:29.651Z,39.22
2022-10-29T02:01:05.807Z,41.78
2022-10-29T02:03:32.658Z,41.47
2022-10-29T02:06:07.721Z,43.20
2022-10-29T02:08:56.577Z,44.03
2022-10-29T02:11:26.137Z,43.45
2022-10-29T02:14:20.949Z,40.83
2022-10-29T02:16:47.725Z,40.77
2022-10-29T02:19:14.532Z,42.58
2022-10-29T02:21:42.604Z,45.92
2022-10-29T02:24:09.484Z,47.55
2022-10-29T02:26:36.241Z,44.03
2022-10-29T02:29:03.044Z,48.33
2022-10-29T02:31:29.914Z,43.67
2022-10-29T02:33:56.670Z,40.90
2022-10-29T02:36:23.482Z,41.75
2022-10-29T02:38:50.261Z,38.43
2022-10-29T02:41:17.014Z,37.42
2022-10-29T02:43:43.873Z,38.22
2022-10-29T02:46:15.143Z,41.70
2022-10-29T02:48:42.283Z,44.10
2022-10-29T02:51:09.239Z,45.78
2022-10-29T02:53:36.040Z,47.53
2022-10-29T02:56:03.320Z,47.92
2022-10-29T02:58:30.338Z,48.17
2022-10-29T03:00:57.150Z,50.65
2022-10-29T03:03:24.520Z,53.03
2022-10-29T03:05:51.589Z,53.58
2022-10-29T03:08:18.533Z,52.95
2022-10-29T03:10:45.421Z,50.55
2022-10-29T03:13:12.266Z,50.15
2022-10-29T03:15:39.074Z,54.50
2022-10-29T03:18:06.017Z,56.30
2022-10-29T03:20:32.817Z,53.63
2022-10-29T03:22:59.565Z,48.70
2022-10-29T03:25:26.416Z,48.63
2022-10-29T03:27:53.361Z,52.08
2022-10-29T03:30:20.277Z,52.75
2022-10-29T03:32:47.796Z,55.10
2022-10-29T03:35:15.532Z,54.38
2022-10-29T03:37:42.341Z,53.45
2022-10-29T03:40:09.478Z,47.83
2022-10-29T03:42:36.332Z,53.53
2022-10-29T03:45:03.296Z,54.67
2022-10-29T03:47:30.076Z,55.40
2022-10-29T03:49:56.833Z,52.95
2022-10-29T03:52:23.640Z,52.78
2022-10-29T03:54:50.426Z,52.20
2022-10-29T03:57:17.191Z,52.97
2022-10-29T03:59:45.970Z,50.88
2022-10-29T04:02:15.340Z,55.50
2022-10-29T04:04:42.177Z,57.20
2022-10-29T04:07:08.964Z,58.03
2022-10-29T04:09:35.813Z,58.90
2022-10-29T04:12:03.093Z,57.10
2022-10-29T04:14:29.974Z,55.13
2022-10-29T04:16:57.986Z,46.67
2022-10-29T04:19:25.777Z,56.00
2022-10-29T04:32:45.940Z,53.15
2022-10-29T04:35:12.729Z,48.70
2022-10-29T04:37:39.617Z,52.00
2022-10-29T04:40:06.784Z,52.10
2022-10-29T04:42:37.647Z,52.30
2022-10-29T04:45:05.712Z,50.25
2022-10-29T04:47:32.482Z,52.13
2022-10-29T04:49:59.287Z,53.65
2022-10-29T04:52:26.277Z,54.65
2022-10-29T04:54:53.078Z,56.85
2022-10-29T04:57:19.840Z,51.47
2022-10-29T04:59:46.615Z,50.88
2022-10-29T05:02:13.428Z,47.95
2022-10-29T05:04:40.177Z,42.42
2022-10-29T05:07:07.053Z,41.00
2022-10-29T05:09:33.810Z,43.78
2022-10-29T05:12:00.562Z,39.33
2022-10-29T05:14:27.432Z,31.88
2022-10-29T05:16:54.353Z,23.77
2022-10-29T05:19:21.162Z,26.40
2022-10-29T05:21:47.983Z,31.20
2022-10-29T05:24:15.821Z,49.80
2022-10-29T05:26:43.925Z,47.92
2022-10-29T05:29:10.697Z,49.40
2022-10-29T05:31:37.477Z,55.65
2022-10-29T05:34:04.241Z,59.13
2022-10-29T05:36:31.078Z,54.30
2022-10-29T05:38:57.936Z,57.38
2022-10-29T05:41:24.727Z,61.58
2022-10-29T05:43:51.603Z,54.63
2022-10-29T05:46:18.455Z,59.42
2022-10-29T05:48:45.240Z,61.50
2022-10-29T05:51:12.005Z,55.08
2022-10-29T05:53:38.823Z,51.97
2022-10-29T05:56:06.221Z,56.00
2022-10-29T05:58:32.979Z,53.58
2022-10-29T06:00:59.732Z,49.50
2022-10-29T06:03:26.535Z,48.10
2022-10-29T06:05:53.316Z,47.92
2022-10-29T06:08:20.070Z,51.20
2022-10-29T06:10:46.860Z,46.67
2022-10-29T06:13:15.361Z,51.72
2022-10-29T06:15:42.228Z,49.80
2022-10-29T06:18:09.028Z,46.92
2022-10-29T06:20:36.553Z,47.13
2022-10-29T06:23:03.695Z,37.95
2022-10-29T06:25:30.851Z,51.42
2022-10-29T06:28:04.212Z,55.13
2022-10-29T06:30:31.595Z,56.42
2022-10-29T06:32:58.976Z,57.55
2022-10-29T06:35:26.031Z,62.65
2022-10-29T06:37:53.149Z,59.45
2022-10-29T06:40:20.104Z,68.93
2022-10-29T06:42:46.948Z,65.25
2022-10-29T06:45:13.901Z,58.50
2022-10-29T06:47:44.476Z,42.47
2022-10-29T06:50:12.495Z,58.78
2022-10-29T06:52:39.336Z,58.10
2022-10-29T06:55:06.689Z,55.50
2022-10-29T06:57:33.456Z,66.18
2022-10-29T07:00:05.405Z,65.97
2022-10-29T07:02:35.483Z,56.95
2022-10-29T07:05:02.300Z,62.72
2022-10-29T07:07:29.426Z,56.30
2022-10-29T07:09:56.311Z,53.78
2022-10-29T07:12:23.061Z,57.30
2022-10-29T07:14:49.816Z,55.40
2022-10-29T07:17:16.617Z,57.45
2022-10-29T07:19:43.367Z,61.03
2022-10-29T07:22:10.113Z,63.38
2022-10-29T07:24:36.934Z,66.03
2022-10-29T07:27:03.865Z,69.75
2022-10-29T07:29:30.742Z,69.57
2022-10-29T07:31:57.577Z,69.28
2022-10-29T07:34:24.377Z,63.55
2022-10-29T07:36:51.146Z,68.22
2022-10-29T07:39:18.011Z,69.05
2022-10-29T07:41:44.807Z,65.07
2022-10-29T07:44:11.580Z,67.25
2022-10-29T07:46:38.453Z,73.10
2022-10-29T07:49:05.232Z,72.18
2022-10-29T07:51:32.069Z,76.55
2022-10-29T07:53:58.882Z,73.40
2022-10-29T07:56:25.671Z,76.70
2022-10-29T07:58:52.436Z,79.22
2022-10-29T08:01:19.478Z,75.70
2022-10-29T08:03:46.426Z,77.25
2022-10-29T08:06:13.197Z,80.07
2022-10-29T08:08:39.973Z,74.65
2022-10-29T08:11:07.209Z,75.95
2022-10-29T08:13:34.072Z,79.97
2022-10-29T08:16:00.863Z,77.68
2022-10-29T08:18:27.704Z,86.72
2022-10-29T08:20:54.462Z,87.90
2022-10-29T08:23:21.313Z,69.53
2022-10-29T08:25:48.148Z,57.40
2022-10-29T08:28:15.338Z,60.70
2022-10-29T08:30:44.058Z,61.90
2022-10-29T08:33:11.378Z,54.72
2022-10-29T08:35:38.283Z,54.80
2022-10-29T08:38:05.092Z,49.40
2022-10-29T08:40:45.100Z,51.88
2022-10-29T08:43:36.850Z,49.10
2022-10-29T08:46:03.695Z,53.15
2022-10-29T08:48:44.509Z,48.08
2022-10-29T08:51:20.488Z,46.13
2022-10-29T08:54:03.979Z,48.40
2022-10-29T08:56:36.237Z,45.75
2022-10-29T08:59:29.831Z,47.92
2022-10-29T09:01:56.859Z,41.88
2022-10-29T09:04:36.941Z,40.50
2022-10-29T09:07:34.374Z,37.47
2022-10-29T09:10:17.417Z,41.45
2022-10-29T09:13:02.771Z,41.17
2022-10-29T09:15:45.275Z,38.20
2022-10-29T09:18:48.992Z,37.83
2022-10-29T09:21:37.999Z,42.83
2022-10-29T09:24:09.187Z,37.80
2022-10-29T09:26:48.968Z,38.17
2022-10-29T09:29:31.738Z,32.00
2022-10-29T09:32:04.326Z,32.58
2022-10-29T09:34:34.516Z,32.35
2022-10-29T09:37:01.289Z,40.30
2022-10-29T09:39:35.435Z,41.80
2022-10-29T09:42:02.964Z,38.42
2022-10-29T09:44:38.386Z,40.33
2022-10-29T09:47:26.038Z,37.33
2022-10-29T09:50:16.297Z,36.90
2022-10-29T09:52:44.065Z,35.33
2022-10-29T09:55:38.311Z,31.65
2022-10-29T09:58:05.137Z,29.13
2022-10-29T10:00:31.965Z,29.73
2022-10-29T10:03:03.799Z,25.67
2022-10-29T10:05:32.708Z,26.00
2022-10-29T10:08:13.271Z,22.50
2022-10-29T10:10:53.664Z,19.70
2022-10-29T10:13:24.665Z,16.17
2022-10-29T10:15:55.729Z,15.25
2022-10-29T10:18:24.424Z,13.45
2022-10-29T10:21:06.681Z,11.38
2022-10-29T10:23:46.977Z,10.35
2022-10-29T10:26:36.947Z,9.63
2022-10-29T10:29:16.613Z,10.10
2022-10-29T10:31:56.410Z,9.95
2022-10-29T10:34:24.652Z,9.60
2022-10-29T10:37:05.223Z,9.02
2022-10-29T10:39:38.479Z,9.43
2022-10-29T10:42:24.875Z,9.05
2022-10-29T10:44:58.345Z,8.30
2022-10-29T10:47:27.456Z,8.40
2022-10-29T10:49:54.280Z,7.38
2022-10-29T10:52:28.868Z,6.50
2022-10-29T10:55:08.149Z,6.97
2022-10-29T10:57:38.118Z,6.18
2022-10-29T11:00:20.139Z,6.93
2022-10-29T11:02:54.916Z,7.18
2022-10-29T11:05:46.935Z,7.28
2022-10-29T11:08:28.063Z,6.03
2022-10-29T11:10:56.805Z,7.57
2022-10-29T11:13:30.515Z,6.75
2022-10-29T11:16:16.364Z,7.05
2022-10-29T11:18:53.321Z,6.45
2022-10-29T11:21:30.775Z,6.40
2022-10-29T11:24:13.879Z,7.32
2022-10-29T11:26:41.591Z,6.05
2022-10-29T11:29:14.476Z,5.95
2022-10-29T11:31:53.882Z,7.20
2022-10-29T11:34:42.127Z,6.22
2022-10-29T11:37:36.955Z,6.75
2022-10-29T11:40:15.079Z,5.90
2022-10-29T11:42:41.911Z,6.65
2022-10-29T11:45:12.186Z,7.05
2022-10-29T11:48:03.075Z,6.50
2022-10-29T11:51:10.922Z,6.28
2022-10-29T11:54:08.637Z,6.75
2022-10-29T11:57:03.885Z,6.68
2022-10-29T11:59:53.561Z,7.25
2022-10-29T12:02:31.208Z,6.85
2022-10-29T12:05:30.569Z,6.53
2022-10-29T12:08:12.452Z,7.43
2022-10-29T12:10:52.642Z,5.78
2022-10-29T12:13:39.687Z,6.85
2022-10-29T12:16:28.744Z,6.90
2022-10-29T12:19:20.380Z,7.00
2022-10-29T12:22:12.181Z,7.78
2022-10-29T12:24:51.775Z,6.80
2022-10-29T12:27:26.068Z,7.13
2022-10-29T12:30:10.224Z,6.30
2022-10-29T12:32:45.913Z,6.03
2022-10-29T12:35:31.308Z,6.38
2022-10-29T12:38:14.030Z,5.85
2022-10-29T12:40:43.293Z,6.40
2022-10-29T12:43:25.269Z,5.65
2022-10-29T12:46:19.922Z,5.72
2022-10-29T12:49:25.677Z,5.55
2022-10-29T12:52:04.070Z,5.28
2022-10-29T12:54:37.334Z,6.00
2022-10-29T12:57:06.037Z,5.35
2022-10-29T12:59:37.001Z,5.13
2022-10-29T13:02:34.560Z,5.43
2022-10-29T13:05:10.353Z,5.40
2022-10-29T13:07:38.073Z,5.72
2022-10-29T13:10:23.429Z,5.45
2022-10-29T13:13:05.516Z,6.10
2022-10-29T13:15:55.765Z,5.45
2022-10-29T13:18:45.129Z,5.43
2022-10-29T13:21:11.889Z,5.53
2022-10-29T13:23:38.646Z,5.45
2022-10-29T13:26:08.885Z,5.38
2022-10-29T13:28:35.691Z,5.57
2022-10-29T13:31:08.393Z,5.13
2022-10-29T13:33:38.172Z,5.78
2022-10-29T13:36:06.404Z,5.32
2022-10-29T13:39:08.514Z,5.35
2022-10-29T13:41:48.680Z,5.75
2022-10-29T13:44:28.002Z,5.57
2022-10-29T13:47:02.592Z,5.00
2022-10-29T13:49:48.371Z,5.38
2022-10-29T13:52:19.222Z,4.75
2022-10-29T13:54:59.368Z,5.32
2022-10-29T13:57:34.243Z,5.03
2022-10-29T14:00:12.914Z,5.75
2022-10-29T14:02:42.811Z,4.85
2022-10-29T14:05:23.155Z,5.82
2022-10-29T14:08:11.961Z,4.88
2022-10-29T14:10:41.805Z,4.63
2022-10-29T14:13:14.421Z,4.70
2022-10-29T14:16:09.106Z,5.28
2022-10-29T14:18:43.517Z,4.55
2022-10-29T14:21:36.616Z,4.78
2022-10-29T14:24:07.997Z,4.47
2022-10-29T14:26:39.426Z,4.68
2022-10-29T14:29:25.302Z,4.75
2022-10-29T14:32:15.117Z,5.60
2022-10-29T14:34:42.274Z,5.47
2022-10-29T14:37:14.226Z,5.20
2022-10-29T14:39:58.031Z,5.22
2022-10-29T14:42:38.205Z,4.72
2022-10-29T14:45:17.023Z,5.07
2022-10-29T14:47:50.284Z,5.88
2022-10-29T14:50:21.486Z,5.45
2022-10-29T14:53:15.621Z,5.78
2022-10-29T14:55:46.258Z,5.25
2022-10-29T14:58:19.593Z,5.70
2022-10-29T15:00:54.714Z,5.40
2022-10-29T15:03:23.890Z,5.45
2022-10-29T15:05:50.774Z,5.40
2022-10-29T15:08:24.092Z,5.13
2022-10-29T15:10:56.104Z,4.32
2022-10-29T15:13:31.820Z,5.40
2022-10-29T15:16:09.439Z,5.05
2022-10-29T15:18:36.234Z,4.63
2022-10-29T15:21:03.182Z,5.50
2022-10-29T15:23:41.165Z,6.05
2022-10-29T15:26:15.318Z,5.30
2022-10-29T15:28:44.200Z,5.60
2022-10-29T15:31:43.777Z,5.50
2022-10-29T15:34:14.820Z,4.63
2022-10-29T15:36:49.365Z,4.75
2022-10-29T15:39:59.198Z,5.38
2022-10-29T15:42:30.674Z,5.38
2022-10-29T15:45:21.805Z,4.80
2022-10-29T15:47:54.819Z,4.97
2022-10-29T15:50:28.004Z,5.47
2022-10-29T15:53:01.735Z,5.85
2022-10-29T15:55:30.037Z,5.38
2022-10-29T15:58:03.265Z,5.43
2022-10-29T16:00:30.574Z,5.05
2022-10-29T16:03:13.332Z,5.10
2022-10-29T16:05:40.828Z,5.57
2022-10-29T16:08:09.023Z,4.72
2022-10-29T16:10:36.014Z,5.28
2022-10-29T16:13:02.817Z,5.47
2022-10-29T16:15:29.608Z,6.00
2022-10-29T16:17:56.623Z,5.55
2022-10-29T16:20:23.838Z,6.32
2022-10-29T16:22:50.661Z,5.28
2022-10-29T16:25:28.084Z,5.10
2022-10-29T16:27:55.638Z,6.07
2022-10-29T16:30:23.321Z,5.75
2022-10-29T16:32:50.383Z,5.22
2022-10-29T16:35:27.325Z,5.85
2022-10-29T16:37:54.948Z,5.60
2022-10-29T16:40:24.656Z,5.55
2022-10-29T16:42:51.505Z,5.57
2022-10-29T16:45:22.950Z,5.28
2022-10-29T16:47:51.978Z,6.18
2022-10-29T16:50:27.437Z,5.95
2022-10-29T16:53:20.384Z,5.53
2022-10-29T16:55:47.189Z,6.00
2022-10-29T16:58:15.073Z,6.40
2022-10-29T17:00:41.999Z,5.40
2022-10-29T17:03:11.692Z,5.90
2022-10-29T17:05:40.921Z,5.63
2022-10-29T17:08:07.812Z,5.70
2022-10-29T17:10:35.096Z,6.25
2022-10-29T17:13:01.947Z,6.32
2022-10-29T17:15:28.726Z,6.30
2022-10-29T17:17:55.784Z,6.20
2022-10-29T17:20:22.798Z,6.03
2022-10-29T17:22:49.558Z,6.20
2022-10-29T17:25:16.372Z,6.13
2022-10-29T17:27:43.248Z,6.10
2022-10-29T17:30:10.507Z,5.55
2022-10-29T17:32:37.399Z,6.43
2022-10-29T17:35:04.485Z,5.78
2022-10-29T17:37:31.405Z,6.07
2022-10-29T17:40:02.914Z,6.03
2022-10-29T17:42:33.668Z,6.85
2022-10-29T17:45:00.467Z,7.20
2022-10-29T17:47:27.410Z,6.53
2022-10-29T17:49:54.408Z,7.60
2022-10-29T17:52:22.353Z,6.80
2022-10-29T17:54:49.184Z,6.43
2022-10-29T17:57:15.945Z,6.55
2022-10-29T17:59:42.744Z,7.10
2022-10-29T18:02:10.933Z,7.22
2022-10-29T18:04:37.864Z,7.53
2022-10-29T18:07:04.676Z,6.55
2022-10-29T18:09:31.442Z,6.38
2022-10-29T18:11:58.222Z,7.50
2022-10-29T18:14:25.035Z,7.45
2022-10-29T18:16:51.751Z,6.80
2022-10-29T18:19:18.544Z,7.15
2022-10-29T18:21:45.567Z,7.28
2022-10-29T18:24:12.370Z,6.75
2022-10-29T18:26:39.164Z,7.55
2022-10-29T18:29:10.377Z,7.18
2022-10-29T18:31:37.646Z,7.65
2022-10-29T18:34:06.002Z,9.10
2022-10-29T18:36:35.561Z,8.88
2022-10-29T18:39:04.024Z,8.30
2022-10-29T18:41:31.033Z,8.20
2022-10-29T18:43:58.546Z,8.52
2022-10-29T18:46:25.441Z,7.90
2022-10-29T18:48:52.349Z,8.05
2022-10-29T18:51:24.870Z,7.97
2022-10-29T18:53:52.604Z,8.45
2022-10-29T18:56:20.349Z,8.20
2022-10-29T18:58:47.166Z,8.13
2022-10-29T19:01:22.688Z,8.10
2022-10-29T19:03:54.618Z,8.55
2022-10-29T19:06:21.813Z,9.05
2022-10-29T19:08:48.722Z,8.05
2022-10-29T19:11:17.921Z,9.18
2022-10-29T19:13:49.448Z,8.43
2022-10-29T19:16:16.226Z,8.57
2022-10-29T19:18:43.081Z,8.30
2022-10-29T19:21:14.233Z,8.38
2022-10-29T19:23:41.084Z,9.15
2022-10-29T19:26:09.587Z,9.02
2022-10-29T19:28:36.546Z,9.65
2022-10-29T19:31:11.287Z,7.80
2022-10-29T19:33:38.272Z,9.00
2022-10-29T19:36:06.077Z,9.20
2022-10-29T19:38:32.995Z,8.77
2022-10-29T19:40:59.861Z,9.07
2022-10-29T19:43:27.121Z,8.38
2022-10-29T19:45:53.877Z,9.68
2022-10-29T19:48:20.750Z,8.77
2022-10-29T19:50:56.755Z,9.48
2022-10-29T19:53:24.065Z,8.55
2022-10-29T19:55:51.059Z,8.95
2022-10-29T19:58:18.503Z,9.50
2022-10-29T20:00:45.410Z,9.27
2022-10-29T20:03:12.888Z,10.52
2022-10-29T20:05:40.181Z,9.95
2022-10-29T20:08:10.069Z,9.55
2022-10-29T20:10:41.582Z,8.60
2022-10-29T20:13:08.411Z,9.30
2022-10-29T20:15:35.177Z,8.48
2022-10-29T20:18:01.974Z,8.35
2022-10-29T20:20:29.183Z,8.25
2022-10-29T20:22:56.979Z,8.57
2022-10-29T20:25:25.078Z,8.38
2022-10-29T20:27:51.838Z,9.48
2022-10-29T20:30:18.648Z,9.15
2022-10-29T20:32:45.469Z,8.82
2022-10-29T20:35:12.239Z,9.05
2022-10-29T20:37:39.023Z,8.80
2022-10-29T20:40:06.191Z,9.20
2022-10-29T20:42:33.040Z,8.93
2022-10-29T20:44:59.818Z,9.63
2022-10-29T20:47:26.579Z,9.57
2022-10-29T20:49:53.372Z,10.05
2022-10-29T20:52:20.130Z,9.43
2022-10-29T20:54:46.904Z,10.27
2022-10-29T20:57:13.813Z,10.32
2022-10-29T20:59:40.561Z,9.48
2022-10-29T21:02:07.534Z,9.38
2022-10-29T21:04:34.662Z,9.68
2022-10-29T21:07:01.483Z,10.00
2022-10-29T21:09:28.237Z,10.60
2022-10-29T21:11:55.021Z,11.25
2022-10-29T21:14:23.496Z,11.20
2022-10-29T21:16:50.309Z,10.70
2022-10-29T21:19:17.170Z,10.35
2022-10-29T21:21:43.928Z,10.95
2022-10-29T21:24:10.687Z,10.27
2022-10-29T21:26:37.525Z,11.88
2022-10-29T21:29:04.297Z,11.68
2022-10-29T21:31:31.168Z,10.73
2022-10-29T21:33:58.005Z,9.32
2022-10-29T21:36:24.906Z,11.80
2022-10-29T21:38:51.704Z,10.90
2022-10-29T21:41:18.617Z,11.88
2022-10-29T21:43:45.413Z,10.93
2022-10-29T21:46:12.210Z,10.80
2022-10-29T21:48:39.051Z,11.55
2022-10-29T21:51:07.805Z,11.32
2022-10-29T21:53:34.655Z,12.95
2022-10-29T21:56:03.119Z,10.70
2022-10-29T21:58:29.938Z,12.00
2022-10-29T22:01:10.692Z,12.65
2022-10-29T22:03:38.828Z,12.95
2022-10-29T22:06:07.104Z,14.23
2022-10-29T22:08:34.511Z,15.02
2022-10-29T22:11:01.445Z,16.38
2022-10-29T22:13:31.859Z,14.20
2022-10-29T22:16:00.069Z,14.65
2022-10-29T22:18:27.183Z,16.02
2022-10-29T22:21:08.144Z,15.27
2022-10-29T22:23:34.991Z,17.73
2022-10-29T22:26:01.829Z,16.63
2022-10-29T22:28:28.621Z,15.80
2022-10-29T22:31:01.771Z,15.82
2022-10-29T22:33:29.061Z,15.52
2022-10-29T22:35:55.898Z,16.17
2022-10-29T22:38:22.750Z,11.57
2022-10-29T22:40:49.510Z,11.63
2022-10-29T22:43:16.344Z,12.52
2022-10-29T22:45:45.323Z,16.25
2022-10-29T22:48:12.281Z,16.65
2022-10-29T22:50:39.062Z,16.13
2022-10-29T22:53:05.872Z,17.75
2022-10-29T22:55:32.673Z,17.58
2022-10-29T22:57:59.430Z,17.58
2022-10-29T23:00:26.229Z,17.92
2022-10-29T23:02:53.020Z,17.45
2022-10-29T23:05:19.825Z,17.98
2022-10-29T23:07:46.698Z,17.80
2022-10-29T23:10:13.488Z,19.25
2022-10-29T23:12:40.325Z,17.95
2022-10-29T23:15:08.467Z,18.48
2022-10-29T23:17:35.312Z,18.75
2022-10-29T23:20:02.140Z,18.52
2022-10-29T23:22:28.902Z,19.73
2022-10-29T23:24:55.673Z,20.52
2022-10-29T23:27:22.564Z,19.27
2022-10-29T23:29:49.361Z,19.52
2022-10-29T23:32:16.134Z,19.65
2022-10-29T23:34:43.026Z,20.02
2022-10-29T23:37:10.279Z,20.48
2022-10-29T23:39:37.358Z,19.17
2022-10-29T23:42:04.361Z,19.27
2022-10-29T23:44:31.180Z,19.50
2022-10-29T23:46:57.940Z,17.13
2022-10-29T23:49:24.733Z,19.17
2022-10-29T23:51:51.525Z,19.73
2022-10-29T23:54:18.297Z,19.77
2022-10-29T23:56:45.154Z,20.95
2022-10-29T23:59:11.921Z,22.48
